Time;durP1;ratioP1;P1;durP2;ratioP2;P2;SDS_P1;SDS_P2;PMS_P1;PMS_P2;Temp;Humidity;BMP_temperature;BMP_pressure;BME280_temperature;BME280_humidity;BME280_pressure;Samples;Min_cycle;Max_cycle;Signal;HPM_P1;HPM_P2
2022/12/19 00:04:03;;;;;;;53.60;20.23;;;;;;;-1.44;100.00;100783.59;12259035;19;20007;-82
2022/12/19 00:08:15;;;;;;;55.22;21.42;;;;;;;-1.43;100.00;100777.22;12191540;19;20464;-81
2022/12/19 00:12:18;;;;;;;47.42;18.80;;;;;;;-1.43;100.00;100779.94;12213323;19;20007;-80
2022/12/19 00:16:22;;;;;;;43.60;18.35;;;;;;;-1.41;100.00;100795.97;12211310;19;20031;-79
2022/12/19 00:20:24;;;;;;;50.47;18.67;;;;;;;-1.38;100.00;100793.81;12190170;19;20002;-82
2022/12/19 00:24:25;;;;;;;40.25;19.23;;;;;;;-1.33;100.00;100797.97;12205127;19;20010;-81
2022/12/19 00:28:27;;;;;;;44.75;18.83;;;;;;;-1.28;100.00;100776.72;12188496;19;20031;-82
2022/12/19 00:32:29;;;;;;;45.80;19.05;;;;;;;-1.22;100.00;100768.00;12211047;19;20465;-81
2022/12/19 00:36:33;;;;;;;42.85;16.73;;;;;;;-1.19;100.00;100770.41;12203947;19;20020;-81
2022/12/19 00:40:34;;;;;;;45.90;17.02;;;;;;;-1.13;100.00;100756.31;12186658;19;20042;-80
2022/12/19 00:44:36;;;;;;;36.55;16.42;;;;;;;-1.09;100.00;100757.69;12209227;19;20010;-81
2022/12/19 00:48:38;;;;;;;42.45;18.02;;;;;;;-1.06;100.00;100748.44;12206332;19;20027;-83
2022/12/19 00:52:40;;;;;;;52.43;18.83;;;;;;;-1.04;100.00;100744.56;12184680;19;20066;-80
2022/12/19 00:56:41;;;;;;;44.85;16.30;;;;;;;-1.00;100.00;100748.66;12206106;19;20006;-82
2022/12/19 01:00:43;;;;;;;50.05;19.38;;;;;;;-0.98;100.00;100757.47;12203607;19;20010;-80
2022/12/19 01:04:49;;;;;;;46.83;18.27;;;;;;;-0.99;100.00;100753.06;12183040;19;20748;-81
2022/12/19 01:08:50;;;;;;;47.00;18.83;;;;;;;-1.00;100.00;100754.06;12200866;19;20064;-83
2022/12/19 01:12:54;;;;;;;43.90;18.23;;;;;;;-0.96;100.00;100749.19;12204899;19;20467;-82
2022/12/19 01:16:55;;;;;;;47.08;18.00;;;;;;;-0.92;100.00;100767.69;12185981;19;20047;-82
2022/12/19 01:21:00;;;;;;;47.00;18.70;;;;;;;-0.98;100.00;100778.28;12207918;19;20071;-83
2022/12/19 01:25:02;;;;;;;46.15;17.38;;;;;;;-0.99;100.00;100779.25;12205531;19;20039;-82
2022/12/19 01:29:04;;;;;;;38.37;12.73;;;;;;;-0.95;100.00;100783.38;12184881;19;20019;-82
2022/12/19 01:33:09;;;;;;;41.67;16.63;;;;;;;-0.97;100.00;100775.41;12203527;19;20014;-81
2022/12/19 01:37:10;;;;;;;41.85;17.67;;;;;;;-0.93;100.00;100767.84;12205296;19;20457;-79
2022/12/19 01:41:22;;;;;;;43.45;16.77;;;;;;;-0.84;100.00;100764.22;12182221;19;20006;-81
2022/12/19 01:45:30;;;;;;;51.08;17.88;;;;;;;-0.78;100.00;100741.09;12208252;19;20006;-81
2022/12/19 01:49:36;;;;;;;52.97;17.77;;;;;;;-0.73;100.00;100734.22;12182632;19;20014;-82
2022/12/19 01:53:56;;;;;;;52.35;17.90;;;;;;;-0.66;100.00;100722.78;12204570;19;20046;-81
2022/12/19 01:57:58;;;;;;;47.40;16.25;;;;;;;-0.63;100.00;100712.50;12207547;19;20468;-81
2022/12/19 02:02:10;;;;;;;46.70;16.38;;;;;;;-0.56;100.00;100713.59;12190241;19;20006;-80
2022/12/19 02:06:15;;;;;;;48.40;17.98;;;;;;;-0.54;100.00;100702.59;12211035;19;20015;-80
2022/12/19 02:10:17;;;;;;;40.13;16.38;;;;;;;-0.58;100.00;100702.06;12257028;19;20007;-79
2022/12/19 02:14:19;;;;;;;43.70;16.90;;;;;;;-0.55;100.00;100693.63;12226344;19;20003;-82
2022/12/19 02:18:32;;;;;;;45.03;17.55;;;;;;;-0.51;100.00;100703.13;12213736;19;20468;-81
2022/12/19 02:22:45;;;;;;;47.72;17.83;;;;;;;-0.43;100.00;100709.63;12190149;19;20011;-80
2022/12/19 02:26:59;;;;;;;45.35;17.15;;;;;;;-0.51;100.00;100713.94;12207261;19;20020;-81
2022/12/19 02:31:15;;;;;;;45.70;17.38;;;;;;;-0.57;100.00;100705.59;12211761;19;20022;-82
2022/12/19 02:35:29;;;;;;;53.22;20.05;;;;;;;-0.57;100.00;100701.03;12182560;19;20007;-80
2022/12/19 02:39:41;;;;;;;46.53;18.95;;;;;;;-0.51;100.00;100696.84;12211972;19;20010;-80
2022/12/19 02:43:48;;;;;;;47.08;17.95;;;;;;;-0.51;100.00;100688.72;12188869;19;20566;-81
2022/12/19 02:48:02;;;;;;;45.05;18.13;;;;;;;-0.53;100.00;100688.91;12208970;19;20364;-81
2022/12/19 02:52:31;;;;;;;45.72;17.10;;;;;;;-0.51;100.00;100696.84;12211501;19;20010;-82
2022/12/19 02:56:44;;;;;;;43.45;18.38;;;;;;;-0.50;100.00;100695.88;12186403;19;20588;-82
2022/12/19 03:01:03;;;;;;;52.28;19.25;;;;;;;-0.51;100.00;100695.00;12210014;19;20480;-79
2022/12/19 03:05:20;;;;;;;47.67;19.00;;;;;;;-0.43;100.00;100693.38;12180380;19;20010;-81
2022/12/19 03:09:51;;;;;;;47.92;17.67;;;;;;;-0.34;100.00;100687.03;12206421;19;20372;-81
2022/12/19 03:13:58;;;;;;;;;;;;;;;-0.36;100.00;100678.19;12180195;19;20042;-81
2022/12/19 03:18:00;;;;;;;41.17;16.75;;;;;;;-0.37;100.00;100669.22;12209173;19;19915;-80
2022/12/19 03:22:02;;;;;;;57.83;18.75;;;;;;;-0.32;100.00;100676.88;12211727;19;20366;-81
2022/12/19 03:26:11;;;;;;;48.25;19.05;;;;;;;-0.28;100.00;100670.13;12196189;19;20484;-80
2022/12/19 03:30:13;;;;;;;43.78;16.70;;;;;;;-0.27;100.00;100655.56;12204307;19;20034;-81
2022/12/19 03:34:28;;;;;;;47.05;17.65;;;;;;;-0.23;100.00;100656.97;12197714;19;20006;-81
2022/12/19 03:38:32;;;;;;;45.58;17.10;;;;;;;-0.17;100.00;100663.63;12179130;19;20003;-80
2022/12/19 03:47:04;;;;;;;55.53;19.15;;;;;;;-0.09;100.00;100674.47;12182574;19;20007;-80
2022/12/19 03:51:41;;;;;;;46.53;17.70;;;;;;;-0.09;100.00;100667.22;12206377;19;20003;-79
2022/12/19 03:55:52;;;;;;;42.75;17.58;;;;;;;-0.12;100.00;100656.72;12182234;19;20027;-79
2022/12/19 04:00:11;;;;;;;50.80;20.52;;;;;;;-0.19;100.00;100671.88;12200104;19;20808;-79
2022/12/19 04:04:14;;;;;;;58.03;22.10;;;;;;;-0.28;100.00;100668.28;12203689;19;20767;-79
2022/12/19 04:08:16;;;;;;;52.35;20.38;;;;;;;-0.28;100.00;100676.41;12180782;19;20019;-80
2022/12/19 04:12:22;;;;;;;57.00;20.50;;;;;;;-0.25;100.00;100667.94;12202824;19;20006;-79
2022/12/19 04:16:30;;;;;;;52.78;20.85;;;;;;;-0.17;100.00;100659.03;12202801;19;20002;-78
2022/12/19 04:20:35;;;;;;;61.05;20.60;;;;;;;-0.11;100.00;100669.25;12203877;19;20018;-79
2022/12/19 04:24:41;;;;;;;47.63;20.90;;;;;;;-0.06;100.00;100676.88;12202880;19;20507;-78
2022/12/19 04:28:47;;;;;;;50.72;21.17;;;;;;;-0.06;100.00;100677.75;12227263;19;20018;-78
2022/12/19 04:32:49;;;;;;;53.40;20.85;;;;;;;-0.03;100.00;100665.72;12228798;19;20018;-79
2022/12/19 04:36:51;;;;;;;54.92;22.17;;;;;;;-0.07;100.00;100665.19;12214693;19;20007;-78
2022/12/19 04:40:53;;;;;;;53.10;21.02;;;;;;;-0.06;100.00;100656.06;12242914;19;20011;-79
2022/12/19 04:44:54;;;;;;;49.03;20.83;;;;;;;-0.06;100.00;100649.78;12263883;19;20046;-78
2022/12/19 04:48:56;;;;;;;56.78;22.30;;;;;;;-0.02;100.00;100643.03;12213258;19;20010;-79
2022/12/19 04:52:58;;;;;;;58.42;21.98;;;;;;;-0.01;100.00;100631.19;12183867;19;20003;-78
2022/12/19 04:57:00;;;;;;;51.53;20.83;;;;;;;0.05;100.00;100627.84;12212324;19;20022;-78
2022/12/19 05:01:03;;;;;;;59.85;20.23;;;;;;;0.11;100.00;100629.06;12250891;19;20002;-78
2022/12/19 05:05:05;;;;;;;59.15;21.67;;;;;;;0.11;100.00;100629.06;12224944;19;20003;-78
2022/12/19 05:09:09;;;;;;;52.72;18.27;;;;;;;0.15;100.00;100630.41;12198023;19;19998;-78
2022/12/19 05:13:10;;;;;;;53.15;20.23;;;;;;;0.23;100.00;100615.03;12192752;19;20045;-78
2022/12/19 05:17:12;;;;;;;52.70;20.92;;;;;;;0.29;100.00;100620.81;12172457;19;20010;-78
2022/12/19 05:21:14;;;;;;;50.42;20.10;;;;;;;0.27;100.00;100626.44;12192271;19;20013;-78
2022/12/19 05:25:15;;;;;;;51.35;21.08;;;;;;;0.25;100.00;100628.44;12191681;19;20002;-78
2022/12/19 05:29:17;;;;;;;55.20;21.45;;;;;;;0.25;100.00;100641.16;12174128;19;20007;-78
2022/12/19 05:33:19;;;;;;;46.30;19.08;;;;;;;0.29;100.00;100646.06;12206477;19;20010;-78
2022/12/19 05:37:20;;;;;;;51.10;19.98;;;;;;;0.26;100.00;100627.41;12207773;19;20090;-78
2022/12/19 05:41:22;;;;;;;50.47;19.58;;;;;;;0.28;100.00;100619.13;12179332;19;20354;-78
2022/12/19 05:45:24;;;;;;;50.80;19.02;;;;;;;0.31;100.00;100633.22;12203322;19;20015;-78
2022/12/19 05:49:25;;;;;;;53.85;19.42;;;;;;;0.31;100.00;100644.06;12208575;19;20627;-78
2022/12/19 05:53:27;;;;;;;49.47;20.27;;;;;;;0.23;100.00;100644.84;12181872;19;20528;-79
2022/12/19 05:57:29;;;;;;;54.45;20.25;;;;;;;0.29;100.00;100643.34;12199409;19;20275;-78
2022/12/19 06:01:31;;;;;;;57.72;22.13;;;;;;;0.39;100.00;100632.41;12179938;19;20119;-78
2022/12/19 06:05:36;;;;;;;42.07;19.43;;;;;;;0.42;100.00;100632.91;12199952;19;20042;-79
2022/12/19 06:09:37;;;;;;;48.85;19.48;;;;;;;0.47;100.00;100627.00;12204659;19;20089;-79
2022/12/19 06:13:40;;;;;;;50.30;20.10;;;;;;;0.50;100.00;100618.53;12177931;19;20551;-79
2022/12/19 06:17:41;;;;;;;52.08;20.52;;;;;;;0.50;100.00;100621.22;12195022;19;20038;-79
2022/12/19 06:21:43;;;;;;;47.67;19.52;;;;;;;0.57;100.00;100619.56;12197645;19;20038;-79
2022/12/19 06:25:49;;;;;;;50.88;20.08;;;;;;;0.62;100.00;100632.63;12186164;19;20012;-79
2022/12/19 06:29:50;;;;;;;44.30;18.85;;;;;;;0.58;100.00;100631.28;12205177;19;20014;-79
2022/12/19 06:33:53;;;;;;;47.08;19.85;;;;;;;0.63;100.00;100637.06;12213916;19;20010;-79
2022/12/19 06:37:55;;;;;;;50.50;20.77;;;;;;;0.66;100.00;100639.44;12188794;19;20010;-79
2022/12/19 06:46:21;;;;;;;49.80;19.27;;;;;;;0.74;100.00;100620.44;12207460;19;20014;-79
2022/12/19 06:50:23;;;;;;;52.60;20.45;;;;;;;0.76;100.00;100629.28;12181049;19;20044;-79
2022/12/19 06:54:25;;;;;;;51.33;20.05;;;;;;;0.76;100.00;100642.84;12201269;19;20011;-79
2022/12/19 06:58:26;;;;;;;47.60;18.88;;;;;;;0.79;100.00;100645.22;12204645;19;20011;-79
2022/12/19 07:02:30;;;;;;;44.25;19.30;;;;;;;0.86;100.00;100631.84;12183192;19;20010;-79
2022/12/19 07:06:32;;;;;;;48.88;21.10;;;;;;;0.86;100.00;100632.72;12204135;19;20010;-79
2022/12/19 07:10:34;;;;;;;50.40;20.13;;;;;;;0.86;100.00;100635.41;12189586;19;20046;-79
2022/12/19 07:14:37;;;;;;;50.47;19.38;;;;;;;0.89;100.00;100610.66;12203982;19;20054;-79
2022/12/19 07:18:40;;;;;;;50.05;19.67;;;;;;;0.97;100.00;100611.69;12214391;19;20131;-79
2022/12/19 07:22:42;;;;;;;;;;;;;;;0.96;100.00;100604.56;12188479;19;20031;-80
2022/12/19 07:26:44;;;;;;;46.33;16.97;;;;;;;1.02;100.00;100609.31;12208027;19;20335;-79
2022/12/19 07:30:46;;;;;;;61.63;19.03;;;;;;;1.11;100.00;100602.88;12201930;19;20011;-78
2022/12/19 07:34:48;;;;;;;46.20;19.67;;;;;;;1.21;100.00;100600.81;12191161;19;20043;-79
2022/12/19 07:38:49;;;;;;;52.10;19.38;;;;;;;1.24;100.00;100597.78;12216455;19;20931;-78
2022/12/19 07:42:51;;;;;;;48.42;19.27;;;;;;;1.24;100.00;100605.91;12216488;19;20034;-78
2022/12/19 07:46:53;;;;;;;45.42;19.05;;;;;;;1.23;100.00;100606.09;12194921;19;20743;-79
2022/12/19 07:50:54;;;;;;;42.17;18.25;;;;;;;1.30;100.00;100607.09;12216297;19;20020;-78
2022/12/19 07:54:56;;;;;;;43.65;20.25;;;;;;;1.38;100.00;100606.28;12213358;19;20469;-78
2022/12/19 07:58:57;;;;;;;47.40;19.45;;;;;;;1.35;100.00;100623.75;12195027;19;20006;-79
2022/12/19 08:02:59;;;;;;;46.65;19.60;;;;;;;1.27;100.00;100640.88;12215497;19;20017;-78
2022/12/19 08:07:01;;;;;;;52.80;19.67;;;;;;;1.25;100.00;100634.78;12218835;19;20006;-79
2022/12/19 08:11:12;;;;;;;55.00;23.73;;;;;;;1.23;100.00;100633.25;12196395;19;20026;-78
2022/12/19 08:15:13;;;;;;;56.63;21.20;;;;;;;1.26;100.00;100636.47;12216929;19;20023;-78
2022/12/19 08:19:15;;;;;;;61.15;22.23;;;;;;;1.21;100.00;100627.97;12217822;19;20031;-78
2022/12/19 08:23:17;;;;;;;54.70;20.83;;;;;;;1.26;100.00;100612.03;12194042;19;19998;-78
2022/12/19 08:27:18;;;;;;;52.50;20.85;;;;;;;1.29;100.00;100628.00;12212613;19;20015;-78
2022/12/19 08:31:23;;;;;;;47.92;19.88;;;;;;;1.32;100.00;100605.94;12209435;19;20471;-78
2022/12/19 08:35:25;;;;;;;55.70;21.75;;;;;;;1.46;100.00;100600.81;12195686;19;20018;-79
2022/12/19 08:39:27;;;;;;;49.70;20.95;;;;;;;1.62;100.00;100597.25;12217277;19;20006;-78
2022/12/19 08:43:31;;;;;;;50.70;20.13;;;;;;;1.75;100.00;100586.66;12212902;19;20095;-78
2022/12/19 08:47:33;;;;;;;52.97;20.60;;;;;;;1.78;100.00;100602.63;12217620;19;20608;-78
2022/12/19 08:51:35;;;;;;;49.88;21.02;;;;;;;1.76;100.00;100594.66;12231207;19;20041;-78
2022/12/19 08:55:36;;;;;;;51.38;19.98;;;;;;;1.80;100.00;100592.44;12212903;19;20130;-78
2022/12/19 08:59:38;;;;;;;51.05;19.90;;;;;;;1.79;100.00;100591.59;12241256;19;20018;-78
2022/12/19 09:03:40;;;;;;;54.30;21.88;;;;;;;1.75;100.00;100605.69;12233948;19;20019;-79
2022/12/19 09:08:02;;;;;;;46.20;20.65;;;;;;;1.73;100.00;100596.88;12206093;19;20021;-78
2022/12/19 09:12:04;;;;;;;47.33;19.42;;;;;;;1.78;100.00;100602.63;12229733;19;20010;-78
2022/12/19 09:16:10;;;;;;;53.35;19.98;;;;;;;1.81;100.00;100605.88;12226496;19;20019;-79
2022/12/19 09:20:12;;;;;;;44.67;18.23;;;;;;;1.90;100.00;100620.25;12202493;19;20017;-78
2022/12/19 09:24:21;;;;;;;45.40;19.80;;;;;;;1.92;100.00;100610.06;12211059;19;20007;-78
2022/12/19 09:28:23;;;;;;;49.20;21.02;;;;;;;2.00;100.00;100609.22;12219707;19;20077;-78
2022/12/19 09:32:29;;;;;;;43.38;20.45;;;;;;;2.09;100.00;100605.44;12202670;19;20010;-78
2022/12/19 09:36:30;;;;;;;48.47;20.98;;;;;;;2.17;100.00;100608.13;12232992;19;20215;-78
2022/12/19 09:40:49;;;;;;;48.72;20.15;;;;;;;2.11;100.00;100606.09;12206161;19;20035;-79
2022/12/19 09:45:23;;;;;;;51.72;20.13;;;;;;;2.11;100.00;100613.41;12258340;19;20014;-78
2022/12/19 09:49:37;;;;;;;52.95;21.02;;;;;;;2.19;100.00;100622.38;12222492;19;20005;-79
2022/12/19 09:53:56;;;;;;;48.25;20.95;;;;;;;2.34;100.00;100602.63;12213979;19;20002;-79
2022/12/19 09:58:08;;;;;;;54.00;21.48;;;;;;;2.41;100.00;100604.47;12219592;19;20010;-79
2022/12/19 10:02:37;;;;;;;47.27;19.03;;;;;;;2.34;100.00;100613.50;12193987;19;20006;-78
2022/12/19 10:06:39;;;;;;;47.83;19.92;;;;;;;2.38;100.00;100612.09;12206204;19;20793;-79
2022/12/19 10:11:13;;;;;;;50.53;20.92;;;;;;;2.44;100.00;100604.13;12185068;19;20007;-79
2022/12/19 10:15:56;;;;;;;49.90;21.58;;;;;;;2.50;100.00;100578.91;12211885;19;20018;-79
2022/12/19 10:20:13;;;;;;;45.35;19.63;;;;;;;2.67;100.00;100576.91;12200291;19;20002;-78
2022/12/19 10:24:47;;;;;;;47.85;20.75;;;;;;;2.76;100.00;100571.44;12224724;19;20007;-78
2022/12/19 10:29:26;;;;;;;39.63;18.63;;;;;;;2.90;100.00;100565.22;12204492;19;20017;-78
2022/12/19 10:33:38;;;;;;;51.67;20.13;;;;;;;2.88;100.00;100557.22;12217435;19;20405;-78
2022/12/19 10:37:47;;;;;;;40.70;19.45;;;;;;;2.84;100.00;100560.50;12200474;19;20011;-79
2022/12/19 10:41:55;;;;;;;46.85;19.83;;;;;;;2.86;100.00;100555.72;12216365;19;20026;-79
2022/12/19 10:46:02;;;;;;;43.45;20.38;;;;;;;2.91;100.00;100558.72;12212926;19;20005;-79
2022/12/19 10:50:10;;;;;;;45.85;19.88;;;;;;;2.89;100.00;100566.25;12191231;19;20003;-78
2022/12/19 10:54:11;;;;;;;46.00;19.15;;;;;;;2.80;100.00;100559.19;12207868;19;20014;-78
2022/12/19 10:58:35;;;;;;;52.50;21.15;;;;;;;2.81;100.00;100547.25;12208836;19;20078;-78
2022/12/19 11:02:36;;;;;;;48.95;20.67;;;;;;;2.77;100.00;100557.66;12186638;19;20010;-78
2022/12/19 11:06:59;;;;;;;51.42;20.55;;;;;;;2.82;100.00;100541.59;12210339;19;20031;-77
2022/12/19 11:11:03;;;;;;;45.40;19.73;;;;;;;2.95;100.00;100538.31;12183861;19;20086;-77
2022/12/19 11:15:25;;;;;;;46.60;19.40;;;;;;;2.99;100.00;100527.88;12204739;19;20018;-78
2022/12/19 11:19:47;;;;;;;42.40;17.75;;;;;;;3.02;100.00;100524.78;12181308;19;20353;-78
2022/12/19 11:24:21;;;;;;;42.40;18.45;;;;;;;3.10;100.00;100508.41;12199064;19;19998;-78
2022/12/19 11:28:43;;;;;;;40.58;18.75;;;;;;;3.20;100.00;100519.88;12174415;19;20351;-77
2022/12/19 11:33:16;;;;;;;40.28;16.95;;;;;;;3.25;100.00;100512.00;12191311;19;20006;-76
2022/12/19 11:37:31;;;;;;;41.22;17.73;;;;;;;3.25;100.00;100513.88;12194500;19;20425;-76
2022/12/19 11:41:48;;;;;;;40.90;18.70;;;;;;;3.27;100.00;100500.91;12165828;19;20018;-77
2022/12/19 11:45:55;;;;;;;42.33;18.08;;;;;;;3.31;100.00;100502.25;12195952;19;20018;-77
2022/12/19 11:50:03;;;;;;;46.25;19.83;;;;;;;3.37;100.00;100496.03;12172790;19;20012;-77
2022/12/19 11:54:19;;;;;;;42.08;18.27;;;;;;;3.38;100.00;100495.84;12192045;19;20014;-76
2022/12/19 11:58:24;;;;;;;40.65;18.42;;;;;;;3.37;100.00;100496.88;12197592;19;20007;-77
2022/12/19 12:02:54;;;;;;;44.17;18.75;;;;;;;3.37;100.00;100491.44;12175928;19;20011;-77
2022/12/19 12:06:57;;;;;;;46.00;18.23;;;;;;;3.41;100.00;100483.72;12196712;19;21287;-77
2022/12/19 12:11:20;;;;;;;45.38;17.48;;;;;;;3.46;100.00;100473.13;12183023;19;20010;-77
2022/12/19 12:16:07;;;;;;;47.70;20.05;;;;;;;3.48;100.00;100467.47;12218303;19;20072;-80
2022/12/19 12:20:46;;;;;;;44.58;18.52;;;;;;;3.48;100.00;100460.16;12185539;19;20035;-78
2022/12/19 12:25:29;;;;;;;46.83;18.88;;;;;;;3.44;100.00;100461.56;12200942;19;20013;-78
2022/12/19 12:30:03;;;;;;;44.88;19.00;;;;;;;3.44;100.00;100464.28;12176808;19;20003;-78
2022/12/19 12:34:34;;;;;;;43.67;18.70;;;;;;;3.50;100.00;100438.16;12196264;19;20027;-79
2022/12/19 12:39:25;;;;;;;47.55;17.73;;;;;;;3.66;100.00;100435.25;12184956;19;20010;-79
2022/12/19 12:43:53;;;;;;;45.63;19.73;;;;;;;3.84;100.00;100437.59;12187054;19;20095;-79
2022/12/19 12:47:55;;;;;;;43.05;17.55;;;;;;;4.01;100.00;100433.56;12210711;19;20027;-79
2022/12/19 12:52:00;;;;;;;44.13;18.30;;;;;;;4.16;100.00;100429.97;12209448;19;20035;-79
2022/12/19 12:56:04;;;;;;;39.40;18.27;;;;;;;4.19;100.00;100429.56;12187201;19;20015;-80
2022/12/19 13:00:23;;;;;;;47.47;19.00;;;;;;;4.30;100.00;100435.38;12205318;19;20010;-79
2022/12/19 13:04:29;;;;;;;46.95;21.58;;;;;;;4.47;100.00;100441.44;12218857;19;20002;-79
2022/12/19 13:08:38;;;;;;;48.55;19.65;;;;;;;4.49;100.00;100435.75;12228504;19;20002;-79
2022/12/19 13:13:06;;;;;;;45.88;21.10;;;;;;;4.41;100.00;100430.47;12250544;19;20011;-79
2022/12/19 13:17:43;;;;;;;52.30;20.92;;;;;;;4.42;100.00;100435.69;12229289;19;19999;-79
2022/12/19 13:22:13;;;;;;;53.92;22.88;;;;;;;4.38;100.00;100423.50;12248981;19;20011;-79
2022/12/19 13:26:22;;;;;;;58.00;24.30;;;;;;;4.40;100.00;100426.84;12224026;19;19999;-79
2022/12/19 13:30:24;;;;;;;56.55;22.70;;;;;;;4.42;100.00;100416.59;12251217;19;20035;-79
2022/12/19 13:34:36;;;;;;;46.50;22.10;;;;;;;4.34;100.00;100416.72;12190488;19;19991;-79
2022/12/19 13:38:49;;;;;;;50.30;21.73;;;;;;;4.29;100.00;100427.41;12224960;19;20243;-78
2022/12/19 13:47:42;;;;;;;49.08;20.52;;;;;;;4.26;100.00;100430.50;12211824;19;20007;-78
2022/12/19 13:51:50;;;;;;;54.13;21.77;;;;;;;4.15;100.00;100429.13;12212647;19;20038;-78
2022/12/19 13:56:01;;;;;;;42.25;19.92;;;;;;;4.07;100.00;100419.16;12197507;19;20014;-79
2022/12/19 14:00:09;;;;;;;43.83;18.52;;;;;;;4.02;100.00;100432.56;12217490;19;20025;-79
2022/12/19 14:04:26;;;;;;;38.05;17.95;;;;;;;3.94;100.00;100438.13;12196853;19;20011;-79
2022/12/19 14:08:27;;;;;;;37.53;17.67;;;;;;;3.89;100.00;100432.38;12227576;19;20010;-79
2022/12/19 14:17:20;;;;;;;40.78;16.80;;;;;;;3.80;100.00;100430.81;12193807;19;20051;-79
2022/12/19 14:21:31;;;;;;;35.88;16.15;;;;;;;3.77;100.00;100425.72;12213357;19;20058;-79
2022/12/19 14:25:54;;;;;;;47.65;20.38;;;;;;;3.71;100.00;100402.81;12192151;19;20356;-79
2022/12/19 14:30:21;;;;;;;38.60;18.50;;;;;;;3.64;100.00;100410.91;12209951;19;20035;-80
2022/12/19 14:34:34;;;;;;;43.30;20.00;;;;;;;3.63;100.00;100398.31;12183105;19;20558;-80
2022/12/19 14:38:57;;;;;;;44.50;18.55;;;;;;;3.57;100.00;100414.56;12209072;19;20011;-78
2022/12/19 14:43:37;;;;;;;49.10;21.02;;;;;;;3.42;100.00;100418.16;12202901;19;20022;-78
2022/12/19 14:47:59;;;;;;;50.97;19.95;;;;;;;3.23;100.00;100410.53;12253939;19;19998;-78
2022/12/19 14:52:40;;;;;;;82.20;29.33;;;;;;;3.10;100.00;100418.53;12214363;19;20579;-80
2022/12/19 14:57:02;;;;;;;97.38;33.10;;;;;;;2.96;100.00;100418.31;12209375;19;20042;-81
2022/12/19 15:01:22;;;;;;;88.60;29.13;;;;;;;2.88;100.00;100421.09;12189868;19;20042;-78
2022/12/19 15:05:25;;;;;;;46.90;20.10;;;;;;;2.79;100.00;100421.38;12210126;19;20027;-79
2022/12/19 15:09:28;;;;;;;39.63;18.13;;;;;;;2.69;100.00;100410.75;12205339;19;20034;-78
2022/12/19 15:13:52;;;;;;;49.15;18.85;;;;;;;2.60;100.00;100409.97;12186730;19;20006;-78
2022/12/19 15:18:18;;;;;;;43.05;19.77;;;;;;;2.53;100.00;100409.03;12206512;19;20046;-78
2022/12/19 15:22:20;;;;;;;49.00;20.00;;;;;;;2.46;100.00;100408.91;12184226;19;20014;-79
2022/12/19 15:26:32;;;;;;;48.38;20.13;;;;;;;2.38;100.00;100405.41;12199207;19;20007;-79
2022/12/19 15:30:36;;;;;;;45.25;18.85;;;;;;;2.30;100.00;100400.03;12203809;19;20850;-79
2022/12/19 15:34:41;;;;;;;47.47;19.23;;;;;;;2.23;100.00;100395.34;12178848;19;20013;-79
2022/12/19 15:38:51;;;;;;;50.97;19.83;;;;;;;2.17;100.00;100384.31;12195798;19;19998;-78
2022/12/19 15:42:56;;;;;;;51.83;20.70;;;;;;;2.14;100.00;100385.53;12200015;19;20034;-80
2022/12/19 15:46:59;;;;;;;50.33;21.90;;;;;;;2.14;100.00;100374.66;12179327;19;20067;-78
2022/12/19 15:51:01;;;;;;;43.55;19.70;;;;;;;2.13;100.00;100367.53;12214204;19;20111;-77
2022/12/19 15:55:03;;;;;;;42.45;17.52;;;;;;;2.08;100.00;100369.94;12224015;19;20019;-78
2022/12/19 15:59:14;;;;;;;39.23;18.20;;;;;;;2.08;100.00;100367.22;12191085;19;20097;-79
2022/12/19 16:03:18;;;;;;;38.22;18.25;;;;;;;2.06;100.00;100361.13;12200862;19;20078;-78
2022/12/19 16:07:25;;;;;;;38.03;17.35;;;;;;;2.02;100.00;100376.09;12181533;19;20003;-78
2022/12/19 16:11:26;;;;;;;43.72;16.52;;;;;;;1.99;100.00;100376.44;12200610;19;20397;-77
2022/12/19 16:15:31;;;;;;;47.42;18.35;;;;;;;1.96;100.00;100374.09;12201407;19;20050;-80
2022/12/19 16:19:33;;;;;;;43.78;17.33;;;;;;;1.94;100.00;100368.84;12183941;19;20007;-79
2022/12/19 16:23:35;;;;;;;43.17;16.80;;;;;;;1.94;100.00;100363.41;12202787;19;20007;-78
2022/12/19 16:27:36;;;;;;;38.70;16.55;;;;;;;1.95;100.00;100361.53;12203447;19;20003;-79
2022/12/19 16:31:38;;;;;;;43.88;17.85;;;;;;;1.94;100.00;100360.69;12181601;19;20015;-81
2022/12/19 16:35:40;;;;;;;41.45;17.90;;;;;;;1.95;100.00;100356.09;12203827;19;20010;-79
2022/12/19 16:40:02;;;;;;;42.28;17.58;;;;;;;1.91;100.00;100344.75;12199251;19;20063;-79
2022/12/19 16:44:28;;;;;;;43.60;19.10;;;;;;;1.91;100.00;100339.31;12178764;19;20014;-79
2022/12/19 16:48:30;;;;;;;45.78;18.88;;;;;;;1.88;100.00;100328.81;12205926;19;20049;-77
2022/12/19 16:52:32;;;;;;;37.10;14.68;;;;;;;1.88;100.00;100336.13;12181063;19;20109;-79
2022/12/19 16:56:51;;;;;;;46.47;18.58;;;;;;;1.89;100.00;100332.38;12200226;19;20010;-80
2022/12/19 17:00:54;;;;;;;47.22;19.45;;;;;;;1.81;100.00;100333.25;12199459;19;20051;-79
2022/12/19 17:04:56;;;;;;;75.47;27.23;;;;;;;1.75;100.00;100337.53;12173927;19;20011;-82
2022/12/19 17:08:57;;;;;;;54.42;22.17;;;;;;;1.66;100.00;100330.47;12202934;19;20030;-80
2022/12/19 17:13:02;;;;;;;100.72;32.92;;;;;;;1.62;100.00;100350.88;12197901;19;21468;-80
2022/12/19 17:17:04;;;;;;;93.05;33.58;;;;;;;1.58;100.00;100346.84;12176790;19;20011;-79
2022/12/19 17:21:06;;;;;;;93.78;36.53;;;;;;;1.63;100.00;100351.72;12197690;19;20551;-80
2022/12/19 17:25:19;;;;;;;67.00;28.77;;;;;;;1.66;100.00;100357.63;12167214;19;20010;-80
2022/12/19 17:29:20;;;;;;;65.13;28.40;;;;;;;1.69;100.00;100368.13;12197624;19;20371;-81
2022/12/19 17:33:36;;;;;;;66.80;27.77;;;;;;;1.71;100.00;100379.69;12194687;19;20046;-78
2022/12/19 17:37:38;;;;;;;45.80;21.67;;;;;;;1.74;100.00;100373.06;12176820;19;21304;-78
2022/12/19 17:41:39;;;;;;;48.60;21.00;;;;;;;1.76;100.00;100369.13;12187056;19;21143;-80
2022/12/19 17:45:41;;;;;;;49.38;21.17;;;;;;;1.79;100.00;100357.91;12195042;19;20054;-79
2022/12/19 17:49:43;;;;;;;58.97;21.48;;;;;;;1.85;100.00;100366.38;12175636;19;20010;-78
2022/12/19 17:53:45;;;;;;;56.13;21.52;;;;;;;1.91;100.00;100362.94;12191782;19;20010;-79
2022/12/19 17:57:47;;;;;;;48.80;19.63;;;;;;;1.96;100.00;100364.09;12207737;19;20007;-79
2022/12/19 18:01:49;;;;;;;48.88;20.98;;;;;;;2.02;100.00;100357.94;12177404;19;20031;-81
2022/12/19 18:05:53;;;;;;;46.97;21.20;;;;;;;2.03;100.00;100345.19;12197701;19;20011;-82
2022/12/19 18:09:55;;;;;;;47.97;21.13;;;;;;;2.04;100.00;100349.59;12234332;19;20018;-76
2022/12/19 18:13:56;;;;;;;53.90;21.42;;;;;;;2.04;100.00;100331.41;12197283;19;20523;-79
2022/12/19 18:17:58;;;;;;;48.45;18.55;;;;;;;2.09;100.00;100327.31;12199731;19;20011;-83
2022/12/19 18:22:00;;;;;;;37.42;15.73;;;;;;;2.09;100.00;100311.00;12195125;19;21276;-80
2022/12/19 18:26:02;;;;;;;48.63;20.25;;;;;;;2.13;100.00;100334.91;12170533;19;20007;-79
2022/12/19 18:30:05;;;;;;;46.60;19.95;;;;;;;2.15;100.00;100304.81;12196539;19;20366;-77
2022/12/19 18:34:15;;;;;;;;;;;;;;;2.14;100.00;100312.13;12180845;19;20547;-79
2022/12/19 18:38:19;;;;;;;46.70;18.85;;;;;;;2.18;100.00;100310.72;12196660;19;19915;-80
2022/12/19 18:42:22;;;;;;;46.17;20.33;;;;;;;2.19;100.00;100314.28;12196508;19;20006;-79
2022/12/19 18:46:27;;;;;;;61.97;25.58;;;;;;;2.10;100.00;100305.34;12178601;19;20024;-80
2022/12/19 18:50:29;;;;;;;47.40;22.67;;;;;;;2.02;100.00;100319.88;12201632;19;20003;-77
2022/12/19 18:54:30;;;;;;;55.05;22.77;;;;;;;2.00;100.00;100310.22;12204745;19;20014;-81